createdAt,value
2023-05-03T00:00:24.715Z,24.00
2023-05-03T00:01:24.752Z,23.99
2023-05-03T00:02:24.998Z,23.99
2023-05-03T00:03:24.881Z,23.99
2023-05-03T00:04:24.922Z,23.99
2023-05-03T00:05:25.048Z,23.99
2023-05-03T00:06:25.133Z,23.99
2023-05-03T00:07:25.130Z,23.99
2023-05-03T00:08:25.163Z,23.99
2023-05-03T00:09:25.230Z,24.00
2023-05-03T00:10:25.311Z,24.00
2023-05-03T00:11:25.373Z,24.01
2023-05-03T00:12:25.442Z,24.00
2023-05-03T00:13:25.521Z,24.00
2023-05-03T00:14:25.560Z,24.00
2023-05-03T00:15:25.685Z,23.99
2023-05-03T00:16:25.715Z,24.00
2023-05-03T00:17:25.805Z,24.00
2023-05-03T00:18:25.827Z,24.00
2023-05-03T00:19:31.394Z,24.01
2023-05-03T00:20:26.899Z,23.99
2023-05-03T00:21:25.870Z,23.99
2023-05-03T00:22:25.905Z,23.99
2023-05-03T00:23:25.926Z,24.01
2023-05-03T00:24:25.897Z,24.00
2023-05-03T00:25:25.915Z,24.00
2023-05-03T00:26:25.928Z,24.00
2023-05-03T00:27:25.925Z,23.99
2023-05-03T00:28:25.914Z,23.98
2023-05-03T00:29:25.946Z,23.98
2023-05-03T00:30:26.020Z,23.97
2023-05-03T00:31:26.084Z,23.97
2023-05-03T00:32:26.136Z,23.99
2023-05-03T00:33:26.164Z,24.01
2023-05-03T00:34:26.197Z,24.00
2023-05-03T00:35:26.283Z,24.00
2023-05-03T00:36:26.337Z,24.00
2023-05-03T00:37:26.390Z,24.00
2023-05-03T00:38:26.449Z,24.00
2023-05-03T00:39:26.496Z,23.99
2023-05-03T00:40:26.592Z,23.99
2023-05-03T00:41:26.625Z,24.00
2023-05-03T00:42:26.701Z,24.00
2023-05-03T00:43:26.767Z,23.99
2023-05-03T00:44:26.838Z,23.99
2023-05-03T00:45:26.902Z,23.99
2023-05-03T00:46:26.942Z,24.00
2023-05-03T00:47:26.926Z,24.00
2023-05-03T00:48:26.902Z,24.01
2023-05-03T00:49:26.906Z,24.00
2023-05-03T00:50:26.936Z,24.01
2023-05-03T00:51:26.904Z,24.01
2023-05-03T00:52:26.928Z,24.00
2023-05-03T00:53:26.939Z,23.99
2023-05-03T00:54:26.914Z,23.99
2023-05-03T00:55:26.935Z,23.99
2023-05-03T00:56:27.589Z,23.99
2023-05-03T00:57:27.048Z,23.98
2023-05-03T00:58:27.121Z,23.98
2023-05-03T00:59:27.195Z,23.99
2023-05-03T01:00:27.269Z,23.99
2023-05-03T01:01:27.375Z,24.01
2023-05-03T01:02:27.458Z,23.99
2023-05-03T01:03:27.475Z,23.99
2023-05-03T01:04:27.509Z,23.99
2023-05-03T01:05:27.581Z,23.99
2023-05-03T01:06:27.713Z,23.99
2023-05-03T01:07:27.712Z,24.00
2023-05-03T01:08:27.753Z,24.00
2023-05-03T01:09:27.823Z,23.99
2023-05-03T01:10:27.970Z,24.00
2023-05-03T01:11:27.957Z,23.99
2023-05-03T01:12:28.029Z,23.98
2023-05-03T01:13:28.121Z,23.98
2023-05-03T01:14:28.167Z,23.96
2023-05-03T01:15:28.239Z,23.98
2023-05-03T01:16:28.356Z,23.97
2023-05-03T01:17:28.505Z,23.98
2023-05-03T01:18:28.435Z,23.98
2023-05-03T01:19:28.485Z,23.97
2023-05-03T01:20:28.559Z,23.98
2023-05-03T01:21:28.621Z,23.97
2023-05-03T01:22:28.638Z,23.97
2023-05-03T01:23:28.635Z,23.98
2023-05-03T01:24:28.652Z,23.98
2023-05-03T01:25:28.682Z,23.97
2023-05-03T01:26:28.677Z,23.98
2023-05-03T01:27:28.657Z,23.97
2023-05-03T01:28:28.660Z,23.97
2023-05-03T01:29:28.665Z,23.99
2023-05-03T01:30:28.675Z,24.02
2023-05-03T01:31:28.720Z,24.02
2023-05-03T01:32:28.809Z,24.01
2023-05-03T01:33:28.810Z,23.99
2023-05-03T01:34:28.907Z,23.98
2023-05-03T01:35:28.949Z,23.98
2023-05-03T01:36:28.991Z,23.98
2023-05-03T01:37:29.049Z,23.97
2023-05-03T01:38:29.100Z,23.97
2023-05-03T01:39:29.163Z,23.96
2023-05-03T01:40:29.262Z,23.97
2023-05-03T01:41:29.289Z,23.98
2023-05-03T01:42:29.363Z,23.97
2023-05-03T01:43:29.412Z,23.98
2023-05-03T01:44:29.483Z,23.98
2023-05-03T01:45:29.585Z,23.97
2023-05-03T01:46:29.727Z,23.98
2023-05-03T01:47:29.654Z,23.99
2023-05-03T01:48:29.624Z,23.98
2023-05-03T01:49:29.606Z,23.97
2023-05-03T01:50:29.623Z,23.97
2023-05-03T01:51:29.635Z,23.99
2023-05-03T01:52:29.629Z,23.99
2023-05-03T01:53:29.628Z,23.98
2023-05-03T01:54:29.621Z,23.98
2023-05-03T01:55:29.621Z,23.97
2023-05-03T01:56:29.717Z,23.97
2023-05-03T01:57:29.730Z,23.97
2023-05-03T01:58:29.748Z,23.98
2023-05-03T01:59:29.754Z,23.99
2023-05-03T02:00:29.736Z,23.98
2023-05-03T02:01:29.816Z,23.98
2023-05-03T02:02:29.786Z,23.97
2023-05-03T02:03:29.748Z,23.97
2023-05-03T02:04:29.804Z,23.97
2023-05-03T02:05:29.787Z,23.97
2023-05-03T02:06:29.836Z,23.97
2023-05-03T02:07:29.775Z,23.98
2023-05-03T02:08:29.778Z,23.97
2023-05-03T02:09:29.804Z,23.97
2023-05-03T02:10:29.809Z,23.98
2023-05-03T02:11:29.861Z,23.96
2023-05-03T02:12:29.844Z,23.97
2023-05-03T02:13:29.842Z,23.98
2023-05-03T02:14:29.854Z,23.97
2023-05-03T02:15:29.861Z,23.95
2023-05-03T02:16:29.926Z,23.97
2023-05-03T02:17:29.916Z,23.96
2023-05-03T02:18:29.891Z,23.96
2023-05-03T02:19:29.897Z,23.95
2023-05-03T02:20:29.913Z,23.95
2023-05-03T02:21:29.935Z,23.96
2023-05-03T02:22:29.935Z,23.96
2023-05-03T02:23:29.960Z,23.96
2023-05-03T02:24:30.018Z,23.97
2023-05-03T02:25:30.028Z,23.97
2023-05-03T02:26:30.093Z,23.97
2023-05-03T02:27:30.167Z,23.97
2023-05-03T02:28:30.221Z,23.97
2023-05-03T02:29:30.293Z,23.96
2023-05-03T02:30:30.341Z,23.95
2023-05-03T02:31:30.482Z,23.95
2023-05-03T02:32:30.479Z,23.95
2023-05-03T02:33:30.528Z,23.94
2023-05-03T02:34:30.544Z,23.94
2023-05-03T02:35:30.565Z,23.94
2023-05-03T02:36:30.554Z,23.95
2023-05-03T02:37:30.556Z,23.97
2023-05-03T02:38:30.557Z,23.97
2023-05-03T02:39:30.564Z,23.97
2023-05-03T02:40:30.575Z,23.98
2023-05-03T02:41:30.591Z,23.96
2023-05-03T02:42:30.597Z,23.94
2023-05-03T02:43:30.617Z,23.91
2023-05-03T02:44:33.032Z,23.86
2023-05-03T02:45:30.634Z,23.81
2023-05-03T02:46:30.672Z,23.75
2023-05-03T02:47:30.666Z,23.71
2023-05-03T02:48:30.661Z,23.66
2023-05-03T02:49:30.677Z,23.61
2023-05-03T02:50:30.700Z,23.59
2023-05-03T02:51:30.710Z,23.56
2023-05-03T02:52:30.707Z,23.52
2023-05-03T02:53:30.716Z,23.49
2023-05-03T02:54:30.727Z,23.48
2023-05-03T02:55:30.749Z,23.45
2023-05-03T02:56:30.767Z,23.43
2023-05-03T02:57:30.791Z,23.42
2023-05-03T02:58:30.793Z,23.40
2023-05-03T02:59:30.817Z,23.38
2023-05-03T03:00:30.809Z,23.36
2023-05-03T03:01:30.853Z,23.36
2023-05-03T03:02:30.883Z,23.34
2023-05-03T03:03:30.944Z,23.35
2023-05-03T03:04:30.877Z,23.34
2023-05-03T03:05:30.918Z,23.36
2023-05-03T03:06:30.946Z,23.37
2023-05-03T03:07:30.908Z,23.35
2023-05-03T03:08:30.946Z,23.36
2023-05-03T03:09:30.950Z,23.36
2023-05-03T03:10:30.966Z,23.36
2023-05-03T03:11:30.981Z,23.37
2023-05-03T03:12:31.005Z,23.38
2023-05-03T03:13:31.023Z,23.38
2023-05-03T03:14:31.030Z,23.39
2023-05-03T03:15:31.049Z,23.38
2023-05-03T03:16:31.188Z,23.39
2023-05-03T03:17:31.138Z,23.39
2023-05-03T03:18:31.098Z,23.38
2023-05-03T03:19:31.115Z,23.36
2023-05-03T03:20:31.135Z,23.37
2023-05-03T03:21:31.135Z,23.36
2023-05-03T03:22:31.157Z,23.38
2023-05-03T03:23:31.190Z,23.37
2023-05-03T03:24:31.178Z,23.38
2023-05-03T03:25:31.201Z,23.39
2023-05-03T03:26:31.215Z,23.38
2023-05-03T03:27:31.233Z,23.39
2023-05-03T03:28:31.230Z,23.39
2023-05-03T03:29:31.233Z,23.37
2023-05-03T03:30:31.258Z,23.36
2023-05-03T03:31:31.358Z,23.35
2023-05-03T03:32:31.326Z,23.34
2023-05-03T03:33:31.287Z,23.34
2023-05-03T03:34:31.294Z,23.33
2023-05-03T03:35:31.293Z,23.33
2023-05-03T03:36:31.312Z,23.32
2023-05-03T03:37:31.322Z,23.31
2023-05-03T03:38:31.333Z,23.30
2023-05-03T03:39:31.335Z,23.29
2023-05-03T03:40:31.355Z,23.27
2023-05-03T03:41:31.375Z,23.26
2023-05-03T03:42:31.409Z,23.27
2023-05-03T03:43:31.422Z,23.24
2023-05-03T03:44:31.413Z,23.24
2023-05-03T03:45:31.419Z,23.24
2023-05-03T03:46:31.462Z,23.24
2023-05-03T03:47:31.490Z,23.24
2023-05-03T03:48:31.479Z,23.23
2023-05-03T03:49:31.487Z,23.22
2023-05-03T03:50:31.500Z,23.23
2023-05-03T03:51:31.526Z,23.22
2023-05-03T03:52:31.573Z,23.22
2023-05-03T03:53:31.550Z,23.20
2023-05-03T03:54:31.579Z,23.19
2023-05-03T03:55:31.599Z,23.19
2023-05-03T03:56:31.650Z,23.18
2023-05-03T03:57:31.667Z,23.18
2023-05-03T03:58:31.648Z,23.18
2023-05-03T03:59:31.647Z,23.16
2023-05-03T04:00:31.679Z,23.15
2023-05-03T04:01:31.683Z,23.14
2023-05-03T04:02:31.788Z,23.13
2023-05-03T04:03:31.778Z,23.12
2023-05-03T04:04:31.877Z,23.12
2023-05-03T04:05:31.793Z,23.11
2023-05-03T04:06:31.791Z,23.11
2023-05-03T04:07:31.796Z,23.10
2023-05-03T04:08:31.828Z,23.09
2023-05-03T04:09:31.836Z,23.08
2023-05-03T04:10:31.853Z,23.08
2023-05-03T04:11:31.866Z,23.07
2023-05-03T04:12:31.983Z,23.06
2023-05-03T04:13:31.904Z,23.05
2023-05-03T04:14:31.919Z,23.04
2023-05-03T04:15:32.002Z,23.03
2023-05-03T04:16:32.063Z,23.02
2023-05-03T04:17:32.051Z,22.97
2023-05-03T04:18:32.053Z,22.50
2023-05-03T04:19:32.126Z,22.36
2023-05-03T04:20:32.151Z,22.32
2023-05-03T04:21:32.219Z,22.30
2023-05-03T04:22:32.267Z,22.35
2023-05-03T04:23:32.333Z,22.38
2023-05-03T04:24:32.400Z,22.45
2023-05-03T04:25:32.489Z,22.50
2023-05-03T04:26:32.561Z,22.56
2023-05-03T04:27:32.590Z,22.61
2023-05-03T04:28:32.648Z,22.66
2023-05-03T04:29:32.716Z,22.68
2023-05-03T04:30:32.807Z,22.72
2023-05-03T04:31:32.856Z,22.73
2023-05-03T04:32:32.865Z,22.75
2023-05-03T04:33:32.919Z,22.75
2023-05-03T04:34:32.964Z,22.76
2023-05-03T04:35:33.031Z,22.77
2023-05-03T04:36:33.124Z,22.77
2023-05-03T04:37:33.106Z,22.79
2023-05-03T04:38:33.152Z,22.80
2023-05-03T04:39:33.200Z,22.79
2023-05-03T04:40:33.229Z,22.80
2023-05-03T04:41:33.284Z,22.78
2023-05-03T04:42:33.315Z,22.31
2023-05-03T04:43:33.389Z,22.11
2023-05-03T04:44:33.455Z,22.07
2023-05-03T04:45:33.546Z,22.04
2023-05-03T04:46:33.694Z,22.08
2023-05-03T04:47:33.805Z,22.14
2023-05-03T04:48:33.783Z,22.20
2023-05-03T04:49:33.864Z,22.27
2023-05-03T04:50:33.925Z,22.34
2023-05-03T04:51:34.003Z,22.38
2023-05-03T04:52:34.055Z,22.44
2023-05-03T04:53:34.126Z,22.47
2023-05-03T04:54:34.190Z,22.50
2023-05-03T04:55:34.263Z,22.52
2023-05-03T04:56:34.308Z,22.54
2023-05-03T04:57:34.333Z,22.56
2023-05-03T04:58:34.360Z,22.57
2023-05-03T04:59:34.347Z,22.58
2023-05-03T05:00:34.364Z,22.57
2023-05-03T05:01:34.442Z,22.58
2023-05-03T05:02:34.510Z,22.58
2023-05-03T05:03:34.544Z,22.58
2023-05-03T05:04:34.452Z,22.59
2023-05-03T05:05:34.498Z,22.59
2023-05-03T05:06:34.564Z,22.58
2023-05-03T05:07:34.534Z,22.60
2023-05-03T05:08:34.542Z,22.60
2023-05-03T05:09:34.574Z,22.61
2023-05-03T05:10:34.608Z,22.61
2023-05-03T05:11:34.636Z,22.61
2023-05-03T05:12:34.694Z,22.60
2023-05-03T05:13:34.658Z,22.59
2023-05-03T05:14:34.717Z,22.60
2023-05-03T05:15:34.767Z,22.60
2023-05-03T05:16:34.902Z,22.60
2023-05-03T05:17:35.022Z,22.59
2023-05-03T05:18:34.959Z,22.59
2023-05-03T05:19:34.979Z,22.59
2023-05-03T05:20:35.037Z,22.59
2023-05-03T05:21:35.134Z,22.59
2023-05-03T05:22:35.113Z,22.59
2023-05-03T05:23:35.169Z,22.59
2023-05-03T05:24:35.195Z,22.59
2023-05-03T05:25:35.219Z,22.60
2023-05-03T05:26:35.255Z,22.61
2023-05-03T05:27:35.263Z,22.60
2023-05-03T05:28:35.299Z,22.62
2023-05-03T05:29:35.297Z,22.62
2023-05-03T05:30:36.290Z,22.62
2023-05-03T05:31:37.302Z,22.63
2023-05-03T05:32:35.413Z,22.63
2023-05-03T05:33:35.442Z,22.64
2023-05-03T05:34:43.645Z,22.64
2023-05-03T05:35:36.498Z,22.65
2023-05-03T05:36:35.592Z,22.66
2023-05-03T05:37:35.606Z,22.68
2023-05-03T05:38:35.571Z,22.69
2023-05-03T05:39:35.554Z,22.70
2023-05-03T05:40:35.570Z,22.71
2023-05-03T05:41:35.577Z,22.71
2023-05-03T05:42:35.633Z,22.73
2023-05-03T05:43:35.614Z,22.74
2023-05-03T05:44:35.667Z,22.75
2023-05-03T05:45:36.338Z,22.75
2023-05-03T05:46:35.756Z,22.76
2023-05-03T05:47:35.804Z,22.77
2023-05-03T05:48:35.747Z,22.76
2023-05-03T05:49:35.761Z,22.78
2023-05-03T05:50:35.806Z,22.78
2023-05-03T05:51:35.835Z,22.79
2023-05-03T05:52:35.832Z,22.81
2023-05-03T05:53:35.840Z,22.83
2023-05-03T05:54:35.934Z,22.83
2023-05-03T05:55:35.874Z,22.83
2023-05-03T05:56:35.980Z,22.83
2023-05-03T05:57:35.957Z,22.83
2023-05-03T05:58:35.958Z,22.83
2023-05-03T05:59:35.976Z,22.83
2023-05-03T06:00:36.023Z,22.82
2023-05-03T06:01:36.056Z,22.82
2023-05-03T06:02:36.107Z,22.83
2023-05-03T06:03:36.100Z,22.84
2023-05-03T06:04:36.096Z,22.84
2023-05-03T06:05:36.451Z,22.85
2023-05-03T06:06:36.151Z,22.86
2023-05-03T06:07:36.254Z,22.87
2023-05-03T06:08:36.199Z,22.87
2023-05-03T06:09:36.226Z,22.87
2023-05-03T06:10:36.244Z,22.86
2023-05-03T06:11:36.283Z,22.85
2023-05-03T06:12:36.278Z,22.87
2023-05-03T06:13:36.333Z,22.87
2023-05-03T06:14:36.420Z,22.87
2023-05-03T06:15:36.381Z,22.86
2023-05-03T06:16:36.440Z,22.86
2023-05-03T06:17:36.515Z,22.87
2023-05-03T06:18:36.425Z,22.87
2023-05-03T06:19:36.458Z,22.87
2023-05-03T06:20:36.457Z,22.87
2023-05-03T06:21:36.496Z,22.88
2023-05-03T06:22:36.518Z,22.87
2023-05-03T06:23:36.513Z,22.86
2023-05-03T06:24:36.621Z,22.86
2023-05-03T06:25:36.712Z,22.85
2023-05-03T06:26:36.597Z,22.86
2023-05-03T06:27:36.612Z,22.85
2023-05-03T06:28:36.619Z,22.86
2023-05-03T06:29:36.681Z,22.87
2023-05-03T06:30:36.786Z,22.87
2023-05-03T06:31:36.880Z,22.88
2023-05-03T06:32:36.891Z,22.88
2023-05-03T06:33:36.900Z,22.89
2023-05-03T06:34:36.926Z,22.88
2023-05-03T06:35:36.953Z,22.88
2023-05-03T06:36:36.973Z,22.88
2023-05-03T06:37:36.994Z,22.89
2023-05-03T06:38:37.000Z,22.90
2023-05-03T06:39:37.023Z,22.90
2023-05-03T06:40:38.454Z,22.91
2023-05-03T06:41:37.105Z,22.90
2023-05-03T06:42:37.131Z,22.91
2023-05-03T06:43:37.077Z,22.90
2023-05-03T06:44:37.098Z,22.90
2023-05-03T06:45:37.117Z,22.73
2023-05-03T06:46:37.196Z,22.60
2023-05-03T06:47:37.387Z,22.41
2023-05-03T06:48:37.271Z,22.27
2023-05-03T06:49:37.272Z,22.11
2023-05-03T06:50:37.320Z,22.11
2023-05-03T06:51:37.288Z,22.14
2023-05-03T06:52:37.371Z,22.19
2023-05-03T06:53:37.355Z,22.29
2023-05-03T06:54:37.386Z,22.38
2023-05-03T06:55:37.494Z,22.44
2023-05-03T06:56:37.549Z,22.50
2023-05-03T06:57:37.678Z,22.56
2023-05-03T06:58:37.706Z,22.62
2023-05-03T06:59:37.816Z,22.67
2023-05-03T07:00:37.819Z,22.72
2023-05-03T07:01:37.959Z,22.77
2023-05-03T07:02:38.074Z,22.81
2023-05-03T07:03:40.817Z,22.84
2023-05-03T07:04:37.991Z,22.88
2023-05-03T07:05:38.063Z,22.90
2023-05-03T07:06:48.739Z,22.92
2023-05-03T07:07:39.076Z,22.93
2023-05-03T07:08:38.218Z,22.96
2023-05-03T07:09:43.172Z,22.98
2023-05-03T07:10:39.079Z,23.00
2023-05-03T07:11:38.120Z,23.02
2023-05-03T07:12:38.142Z,23.03
2023-05-03T07:13:38.360Z,23.07
2023-05-03T07:14:38.293Z,23.08
2023-05-03T07:15:38.167Z,23.11
2023-05-03T07:16:38.195Z,23.14
2023-05-03T07:17:38.330Z,23.17
2023-05-03T07:18:38.166Z,23.20
2023-05-03T07:19:38.157Z,23.22
2023-05-03T07:20:44.553Z,23.24
2023-05-03T07:21:39.469Z,23.24
2023-05-03T07:22:38.198Z,23.26
2023-05-03T07:23:38.205Z,23.28
2023-05-03T07:24:38.204Z,23.30
2023-05-03T07:25:38.238Z,23.32
2023-05-03T07:26:38.248Z,23.32
2023-05-03T07:27:38.276Z,23.33
2023-05-03T07:28:38.254Z,23.32
2023-05-03T07:29:38.324Z,23.32
2023-05-03T07:30:38.289Z,23.34
2023-05-03T07:31:38.286Z,23.36
2023-05-03T07:32:38.848Z,23.38
2023-05-03T07:33:38.441Z,23.39
2023-05-03T07:34:38.407Z,23.39
2023-05-03T07:35:38.495Z,23.40
2023-05-03T07:36:38.579Z,23.39
2023-05-03T07:37:38.692Z,23.39
2023-05-03T07:38:38.730Z,23.40
2023-05-03T07:39:38.679Z,23.40
2023-05-03T07:40:38.685Z,23.40
2023-05-03T07:41:38.731Z,23.38
2023-05-03T07:42:38.719Z,23.39
2023-05-03T07:43:38.738Z,23.39
2023-05-03T07:44:38.740Z,23.40
2023-05-03T07:45:38.940Z,23.41
2023-05-03T07:46:38.781Z,23.40
2023-05-03T07:47:38.869Z,23.39
2023-05-03T07:48:38.812Z,23.39
2023-05-03T07:49:38.822Z,23.40
2023-05-03T07:50:38.846Z,23.41
2023-05-03T07:51:38.851Z,23.41
2023-05-03T07:52:38.884Z,23.40
2023-05-03T07:53:38.862Z,23.42
2023-05-03T07:54:38.897Z,23.44
2023-05-03T07:55:38.915Z,23.48
2023-05-03T07:56:38.966Z,23.51
2023-05-03T07:57:39.026Z,23.55
2023-05-03T07:58:40.650Z,23.57
2023-05-03T07:59:39.146Z,23.59
2023-05-03T08:00:39.250Z,23.60
2023-05-03T08:01:39.331Z,23.63
2023-05-03T08:02:39.455Z,23.63
2023-05-03T08:03:41.428Z,23.65
2023-05-03T08:04:39.660Z,23.65
2023-05-03T08:05:39.547Z,23.65
2023-05-03T08:06:39.651Z,23.66
2023-05-03T08:07:39.671Z,23.67
2023-05-03T08:08:39.703Z,23.68
2023-05-03T08:09:39.708Z,23.68
2023-05-03T08:10:40.321Z,23.70
2023-05-03T08:11:41.647Z,23.72
2023-05-03T08:12:39.745Z,23.72
2023-05-03T08:13:39.746Z,23.73
2023-05-03T08:14:39.747Z,23.73
2023-05-03T08:15:39.813Z,23.74
2023-05-03T08:16:39.793Z,23.74
2023-05-03T08:17:39.886Z,23.75
2023-05-03T08:18:39.791Z,23.76
2023-05-03T08:19:39.803Z,23.77
2023-05-03T08:20:39.800Z,23.77
2023-05-03T08:21:39.852Z,23.79
2023-05-03T08:22:40.968Z,23.80
2023-05-03T08:23:40.825Z,23.83
2023-05-03T08:24:39.835Z,23.83
2023-05-03T08:25:39.863Z,23.83
2023-05-03T08:26:39.871Z,23.83
2023-05-03T08:27:39.878Z,23.83
2023-05-03T08:28:39.881Z,23.84
2023-05-03T08:29:39.879Z,23.87
2023-05-03T08:30:39.958Z,23.90
2023-05-03T08:31:40.861Z,23.91
2023-05-03T08:32:39.954Z,23.90
2023-05-03T08:33:39.932Z,23.90
2023-05-03T08:34:39.925Z,23.91
2023-05-03T08:35:39.972Z,23.92
2023-05-03T08:36:39.927Z,23.93
2023-05-03T08:37:39.947Z,23.94
2023-05-03T08:38:39.928Z,23.94
2023-05-03T08:39:40.021Z,23.94
2023-05-03T08:40:39.941Z,23.95
2023-05-03T08:41:40.010Z,23.96
2023-05-03T08:42:40.024Z,23.97
2023-05-03T08:43:40.092Z,23.97
2023-05-03T08:44:40.148Z,23.98
2023-05-03T08:45:40.254Z,23.98
2023-05-03T08:46:40.397Z,23.98
2023-05-03T08:47:40.459Z,23.98
2023-05-03T08:48:40.401Z,23.96
2023-05-03T08:49:40.573Z,23.96
2023-05-03T08:50:40.522Z,23.97
2023-05-03T08:51:40.605Z,23.97
2023-05-03T08:52:40.668Z,23.99
2023-05-03T08:53:40.704Z,24.00
2023-05-03T08:54:40.709Z,24.00
2023-05-03T08:55:40.704Z,24.02
2023-05-03T08:56:40.761Z,24.03
2023-05-03T08:57:40.741Z,24.04
2023-05-03T08:58:40.707Z,24.07
2023-05-03T08:59:40.736Z,24.07
2023-05-03T09:00:40.727Z,24.08
2023-05-03T09:01:40.870Z,24.08
2023-05-03T09:02:41.420Z,24.10
2023-05-03T09:03:40.766Z,24.11
2023-05-03T09:04:40.723Z,24.11
2023-05-03T09:05:40.953Z,24.12
2023-05-03T09:06:40.875Z,24.13
2023-05-03T09:07:40.822Z,24.13
2023-05-03T09:08:40.893Z,24.15
2023-05-03T09:09:40.933Z,24.16
2023-05-03T09:10:40.987Z,24.17
2023-05-03T09:11:41.004Z,24.18
2023-05-03T09:12:41.523Z,24.19
2023-05-03T09:13:41.180Z,24.20
2023-05-03T09:14:41.109Z,24.23
2023-05-03T09:15:41.154Z,24.23
2023-05-03T09:16:41.233Z,24.24
2023-05-03T09:17:41.229Z,24.24
2023-05-03T09:18:41.185Z,24.25
2023-05-03T09:19:41.220Z,24.27
2023-05-03T09:20:41.187Z,24.30
2023-05-03T09:21:41.151Z,24.32
2023-05-03T09:22:41.181Z,24.34
2023-05-03T09:23:41.190Z,24.35
2023-05-03T09:24:41.201Z,24.36
2023-05-03T09:25:41.158Z,24.37
2023-05-03T09:26:41.166Z,24.39
2023-05-03T09:27:41.160Z,24.39
2023-05-03T09:28:41.168Z,24.39
2023-05-03T09:29:41.143Z,24.39
2023-05-03T09:30:41.280Z,24.41
2023-05-03T09:31:41.928Z,24.43
2023-05-03T09:32:41.153Z,24.44
2023-05-03T09:33:41.112Z,24.45
2023-05-03T09:34:41.123Z,24.46
2023-05-03T09:35:41.839Z,24.48
2023-05-03T09:36:42.840Z,24.49
2023-05-03T09:37:41.152Z,24.50
2023-05-03T09:38:41.175Z,24.52
2023-05-03T09:39:41.229Z,24.53
2023-05-03T09:40:41.875Z,24.54
2023-05-03T09:41:41.214Z,24.57
2023-05-03T09:42:41.236Z,24.58
2023-05-03T09:43:41.260Z,24.58
2023-05-03T09:44:41.276Z,24.60
2023-05-03T09:45:41.463Z,24.62
2023-05-03T09:46:41.370Z,24.64
2023-05-03T09:47:41.393Z,24.67
2023-05-03T09:48:41.581Z,24.69
2023-05-03T09:49:41.433Z,24.70
2023-05-03T09:50:41.425Z,24.70
2023-05-03T09:51:41.434Z,24.69
2023-05-03T09:52:41.461Z,24.69
2023-05-03T09:53:41.517Z,24.67
2023-05-03T09:54:41.514Z,24.67
2023-05-03T09:55:41.573Z,24.67
2023-05-03T09:56:41.569Z,24.65
2023-05-03T09:57:41.605Z,24.66
2023-05-03T09:58:41.623Z,24.66
2023-05-03T09:59:41.672Z,24.67
2023-05-03T10:00:41.670Z,24.68
2023-05-03T10:01:41.824Z,24.66
2023-05-03T10:02:41.785Z,24.67
2023-05-03T10:03:42.054Z,24.67
2023-05-03T10:04:41.788Z,24.67
2023-05-03T10:05:41.816Z,24.66
2023-05-03T10:06:41.867Z,24.67
2023-05-03T10:07:41.900Z,24.67
2023-05-03T10:08:41.896Z,24.68
2023-05-03T10:09:41.997Z,24.68
2023-05-03T10:10:41.912Z,24.68
2023-05-03T10:11:41.944Z,24.69
2023-05-03T10:12:42.429Z,24.69
2023-05-03T10:13:41.978Z,24.70
2023-05-03T10:14:42.902Z,24.72
2023-05-03T10:15:42.960Z,24.74
2023-05-03T10:16:42.032Z,24.74
2023-05-03T10:18:42.073Z,24.75
2023-05-03T10:19:42.120Z,24.74
2023-05-03T10:20:42.017Z,24.74
2023-05-03T10:21:42.052Z,24.74
2023-05-03T10:22:42.048Z,24.75
2023-05-03T10:23:41.999Z,24.75
2023-05-03T10:24:42.031Z,24.75
2023-05-03T10:25:41.986Z,24.74
2023-05-03T10:26:41.988Z,24.73
2023-05-03T10:27:41.984Z,24.73
2023-05-03T10:28:42.374Z,24.74
2023-05-03T10:29:41.941Z,24.73
2023-05-03T10:30:42.006Z,24.74
2023-05-03T10:31:41.963Z,24.74
2023-05-03T10:32:41.958Z,24.73
2023-05-03T10:33:41.976Z,24.72
2023-05-03T10:34:42.753Z,24.73
2023-05-03T10:35:41.940Z,24.75
2023-05-03T10:36:49.334Z,24.77
2023-05-03T10:37:43.878Z,24.78
2023-05-03T10:38:41.956Z,24.78
2023-05-03T10:39:41.943Z,24.78
2023-05-03T10:40:42.047Z,24.77
2023-05-03T10:41:41.881Z,24.78
2023-05-03T10:42:41.889Z,24.75
2023-05-03T10:43:41.922Z,24.77
2023-05-03T10:44:41.879Z,24.78
2023-05-03T10:45:41.880Z,24.80
2023-05-03T10:46:42.341Z,24.83
2023-05-03T10:47:41.887Z,24.83
2023-05-03T10:48:41.867Z,24.83
2023-05-03T10:49:41.851Z,24.84
2023-05-03T10:50:41.942Z,24.83
2023-05-03T10:51:41.852Z,24.84
2023-05-03T10:52:41.829Z,24.86
2023-05-03T10:53:41.829Z,24.88
2023-05-03T10:54:41.959Z,24.87
2023-05-03T10:55:42.382Z,24.88
2023-05-03T10:56:41.896Z,24.86
2023-05-03T10:57:41.878Z,24.85
2023-05-03T10:58:41.988Z,24.84
2023-05-03T10:59:42.166Z,24.82
2023-05-03T11:00:42.070Z,24.83
2023-05-03T11:01:41.843Z,24.83
2023-05-03T11:02:41.950Z,24.83
2023-05-03T11:03:41.812Z,24.82
2023-05-03T11:04:41.877Z,24.82
2023-05-03T11:05:41.806Z,24.82
2023-05-03T11:06:41.891Z,24.83
2023-05-03T11:07:41.822Z,24.84
2023-05-03T11:08:41.851Z,24.86
2023-05-03T11:09:41.786Z,24.87
2023-05-03T11:10:41.865Z,24.86
2023-05-03T11:11:41.773Z,24.85
2023-05-03T11:12:41.780Z,24.85
2023-05-03T11:13:41.855Z,24.85
2023-05-03T11:14:41.756Z,24.84
2023-05-03T11:15:41.757Z,24.84
2023-05-03T11:16:41.800Z,24.84
2023-05-03T11:17:41.762Z,24.82
2023-05-03T11:18:41.734Z,24.83
2023-05-03T11:19:41.726Z,24.82
2023-05-03T11:20:41.735Z,24.81
2023-05-03T11:21:41.736Z,24.81
2023-05-03T11:22:41.749Z,24.82
2023-05-03T11:23:41.756Z,24.81
2023-05-03T11:24:41.748Z,24.80
2023-05-03T11:25:41.734Z,24.80
2023-05-03T11:26:41.746Z,24.80
2023-05-03T11:27:41.716Z,24.80
2023-05-03T11:28:41.709Z,24.78
2023-05-03T11:29:41.811Z,24.78
2023-05-03T11:30:41.706Z,24.79
2023-05-03T11:31:41.807Z,24.78
2023-05-03T11:32:41.734Z,24.78
2023-05-03T11:33:41.696Z,24.78
2023-05-03T11:34:41.693Z,24.79
2023-05-03T11:35:41.721Z,24.78
2023-05-03T11:36:41.722Z,24.78
2023-05-03T11:37:41.652Z,24.78
2023-05-03T11:38:41.923Z,24.78
2023-05-03T11:39:41.663Z,24.76
2023-05-03T11:40:41.712Z,24.76
2023-05-03T11:41:41.666Z,24.76
2023-05-03T11:42:41.684Z,24.74
2023-05-03T11:43:41.637Z,24.72
2023-05-03T11:44:41.635Z,24.72
2023-05-03T11:45:41.970Z,24.72
2023-05-03T11:46:41.817Z,24.72
2023-05-03T11:47:42.454Z,24.74
2023-05-03T11:48:41.690Z,24.73
2023-05-03T11:49:41.608Z,24.74
2023-05-03T11:50:41.681Z,24.74
2023-05-03T11:51:41.649Z,24.75
2023-05-03T11:52:41.617Z,24.76
2023-05-03T11:53:41.639Z,24.76
2023-05-03T11:54:41.717Z,24.75
2023-05-03T11:55:41.673Z,24.76
2023-05-03T11:56:41.622Z,24.76
2023-05-03T11:57:41.708Z,24.76
2023-05-03T11:58:41.686Z,24.76
2023-05-03T11:59:41.647Z,24.75
2023-05-03T12:00:41.642Z,24.76
2023-05-03T12:01:41.657Z,24.75
2023-05-03T12:02:41.787Z,24.76
2023-05-03T12:03:41.887Z,24.76
2023-05-03T12:04:42.368Z,24.77
2023-05-03T12:05:42.023Z,24.76
2023-05-03T12:06:43.753Z,24.76
2023-05-03T12:07:42.009Z,24.76
2023-05-03T12:08:43.874Z,24.76
2023-05-03T12:09:43.931Z,24.78
2023-05-03T12:10:42.927Z,24.77
2023-05-03T12:11:43.445Z,24.78
2023-05-03T12:12:46.974Z,24.78
2023-05-03T12:13:44.076Z,24.77
2023-05-03T12:14:42.064Z,24.77
2023-05-03T12:15:43.577Z,24.76
2023-05-03T12:16:41.649Z,24.76
2023-05-03T12:17:45.234Z,24.77
2023-05-03T12:18:41.890Z,24.76
2023-05-03T12:19:43.850Z,24.76
2023-05-03T12:21:29.332Z,24.76
2023-05-03T12:21:43.238Z,24.76
2023-05-03T12:22:44.358Z,24.76
2023-05-03T12:23:41.862Z,24.77
2023-05-03T12:24:44.819Z,24.77
2023-05-03T12:25:44.446Z,24.77
2023-05-03T12:26:42.410Z,24.76
2023-05-03T12:27:41.916Z,24.77
2023-05-03T12:28:41.893Z,24.77
2023-05-03T12:29:42.162Z,24.77
2023-05-03T12:30:45.368Z,24.77
2023-05-03T12:31:43.933Z,24.75
2023-05-03T12:32:44.231Z,24.76
2023-05-03T12:33:43.625Z,24.77
2023-05-03T12:34:42.278Z,24.78
2023-05-03T12:35:42.236Z,24.78
2023-05-03T12:36:43.806Z,24.79
2023-05-03T12:37:43.851Z,24.79
2023-05-03T12:38:43.701Z,24.80
2023-05-03T12:39:44.813Z,24.81
2023-05-03T12:40:42.267Z,24.82
2023-05-03T12:42:06.245Z,24.84
2023-05-03T12:42:43.423Z,24.86
2023-05-03T12:43:43.619Z,24.88
2023-05-03T12:44:43.382Z,24.90
2023-05-03T12:45:44.652Z,24.90
2023-05-03T12:46:45.220Z,24.92
2023-05-03T12:47:44.348Z,24.93
2023-05-03T12:48:46.162Z,24.95
2023-05-03T12:49:45.827Z,24.94
2023-05-03T12:50:44.921Z,24.96
2023-05-03T12:51:42.921Z,24.95
2023-05-03T12:52:45.264Z,24.94
2023-05-03T12:53:46.590Z,24.96